Time;durP1;ratioP1;P1;durP2;ratioP2;P2;SDS_P1;SDS_P2;PMS_P1;PMS_P2;Temp;Humidity;BMP_temperature;BMP_pressure;BME280_temperature;BME280_humidity;BME280_pressure;Samples;Min_cycle;Max_cycle;Signal;HPM_P1;HPM_P2
2022/09/15 00:01:40;;;;;;;9.70;9.30;;;20.00;53.90;;;;;;4996864;28;20556;-52
2022/09/15 00:04:07;;;;;;;10.43;10.00;;;20.10;53.60;;;;;;4997001;28;20522;-49
2022/09/15 00:06:33;;;;;;;10.30;9.70;;;20.10;53.10;;;;;;5014664;28;20550;-49
2022/09/15 00:08:59;;;;;;;10.60;10.20;;;20.10;52.00;;;;;;4996860;28;20431;-49
2022/09/15 00:11:28;;;;;;;10.33;9.90;;;20.10;52.10;;;;;;4996522;28;20468;-46
2022/09/15 00:13:56;;;;;;;10.20;9.90;;;20.10;52.30;;;;;;4996916;28;20656;-46
2022/09/15 00:16:24;;;;;;;10.60;10.20;;;20.20;52.00;;;;;;4996558;28;20408;-41
2022/09/15 00:18:49;;;;;;;10.70;10.30;;;20.10;52.10;;;;;;4996839;28;20763;-47
2022/09/15 00:21:18;;;;;;;10.80;10.20;;;20.10;52.10;;;;;;4996492;28;20511;-46
2022/09/15 00:23:45;;;;;;;10.87;10.33;;;20.20;51.50;;;;;;4996678;28;20177;-49
2022/09/15 00:26:13;;;;;;;11.17;10.50;;;20.20;51.40;;;;;;4996403;28;20475;-44
2022/09/15 00:28:39;;;;;;;10.70;10.30;;;20.10;51.80;;;;;;4996630;28;20425;-48
2022/09/15 00:31:08;;;;;;;13.10;10.53;;;20.10;51.40;;;;;;4995981;28;20464;-46
2022/09/15 00:33:34;;;;;;;10.63;10.20;;;20.00;51.60;;;;;;4996624;28;20460;-46
2022/09/15 00:36:03;;;;;;;11.20;10.80;;;20.00;51.50;;;;;;4996431;28;20415;-51
2022/09/15 00:38:29;;;;;;;10.30;10.00;;;20.00;51.60;;;;;;4996312;28;20417;-49
2022/09/15 00:40:56;;;;;;;11.70;11.20;;;20.10;51.30;;;;;;4996191;28;20419;-49
2022/09/15 00:43:52;;;;;;;10.50;10.07;;;20.10;50.80;;;;;;4995776;28;20416;-44
2022/09/15 00:46:29;;;;;;;10.00;9.70;;;20.20;50.70;;;;;;4996276;28;20422;-41
2022/09/15 00:48:58;;;;;;;10.70;10.30;;;20.20;50.60;;;;;;4996184;28;20470;-41
2022/09/15 00:51:39;;;;;;;10.90;10.50;;;20.20;50.60;;;;;;5013678;28;20456;-43
2022/09/15 00:54:16;;;;;;;10.50;10.20;;;20.20;50.20;;;;;;4996098;28;20452;-47
2022/09/15 00:56:44;;;;;;;10.80;10.40;;;20.20;50.10;;;;;;4996109;28;20495;-49
2022/09/15 00:59:15;;;;;;;11.40;10.70;;;20.10;50.00;;;;;;4995873;28;20924;-51
2022/09/15 01:01:42;;;;;;;10.50;10.00;;;20.10;49.70;;;;;;4995714;28;20912;-50
2022/09/15 01:04:08;;;;;;;10.43;10.13;;;20.20;49.70;;;;;;4995859;28;20936;-50
2022/09/15 01:06:38;;;;;;;11.17;10.67;;;20.10;48.60;;;;;;4995950;28;20982;-49
2022/09/15 01:09:18;;;;;;;10.70;10.30;;;20.10;48.80;;;;;;4995569;28;20416;-51
2022/09/15 01:11:43;;;;;;;10.10;9.80;;;20.10;49.60;;;;;;4995414;28;20960;-49
2022/09/15 01:14:09;;;;;;;11.10;10.50;;;20.10;49.70;;;;;;5013194;28;20416;-47
2022/09/15 01:17:09;;;;;;;10.87;10.47;;;20.10;49.70;;;;;;4995715;28;20181;-46
2022/09/15 01:20:14;;;;;;;10.13;9.80;;;19.90;49.60;;;;;;4995661;28;20411;-45
2022/09/15 01:23:18;;;;;;;11.20;10.70;;;19.90;50.10;;;;;;4995621;28;20443;-48
2022/09/15 01:26:02;;;;;;;10.73;10.30;;;19.90;49.90;;;;;;4995317;28;20439;-47
2022/09/15 01:28:45;;;;;;;10.30;9.90;;;19.80;50.20;;;;;;4995428;28;20456;-45
2022/09/15 01:31:23;;;;;;;9.40;9.10;;;19.80;50.20;;;;;;4995018;28;20468;-51
2022/09/15 01:34:14;;;;;;;10.40;10.10;;;19.80;51.20;;;;;;4995332;28;20825;-46
2022/09/15 01:36:56;;;;;;;10.10;9.57;;;19.80;50.90;;;;;;4995267;28;20785;-46
2022/09/15 01:39:30;;;;;;;9.40;9.10;;;19.80;50.70;;;;;;4995336;28;20491;-45
2022/09/15 01:42:00;;;;;;;9.83;9.53;;;19.90;51.00;;;;;;4995026;28;20415;-45
2022/09/15 01:44:29;;;;;;;10.30;9.90;;;19.80;50.60;;;;;;4995182;28;20436;-45
2022/09/15 01:46:59;;;;;;;9.70;9.40;;;19.70;51.20;;;;;;4995197;28;20478;-42
2022/09/15 01:49:29;;;;;;;10.07;9.67;;;19.70;51.60;;;;;;4995062;28;20435;-43
2022/09/15 01:51:55;;;;;;;9.50;9.20;;;19.60;51.20;;;;;;4994636;28;20468;-43
2022/09/15 01:54:38;;;;;;;9.70;9.30;;;19.50;51.40;;;;;;4994415;28;20481;-42
2022/09/15 01:57:03;;;;;;;9.50;8.93;;;19.50;51.80;;;;;;4994983;28;20756;-49
2022/09/15 01:59:29;;;;;;;9.63;9.03;;;19.50;51.70;;;;;;5012602;28;20407;-43
2022/09/15 02:02:03;;;;;;;9.50;9.20;;;19.50;52.20;;;;;;4994768;28;20181;-45
2022/09/15 02:05:04;;;;;;;9.37;9.07;;;19.40;51.70;;;;;;4994947;28;20173;-43
2022/09/15 02:07:50;;;;;;;9.43;9.13;;;19.40;51.20;;;;;;4986199;28;20451;-51
2022/09/15 02:10:24;;;;;;;10.13;9.70;;;19.40;51.80;;;;;;4994210;28;20456;-49
2022/09/15 02:13:00;;;;;;;10.90;10.00;;;19.30;51.10;;;;;;4994741;28;20412;-46
2022/09/15 02:15:49;;;;;;;9.73;9.23;;;19.30;51.40;;;;;;4994728;28;20470;-50
2022/09/15 02:18:24;;;;;;;10.37;9.87;;;19.30;51.40;;;;;;4994741;28;20416;-51
2022/09/15 02:21:01;;;;;;;9.67;9.27;;;19.40;51.00;;;;;;4994592;28;20554;-41
2022/09/15 02:23:33;;;;;;;9.73;9.43;;;19.40;50.20;;;;;;4994773;28;20796;-51
2022/09/15 02:26:05;;;;;;;9.83;9.40;;;19.40;50.10;;;;;;4994529;28;20444;-50
2022/09/15 02:28:34;;;;;;;9.60;9.30;;;19.40;49.90;;;;;;5012260;28;20404;-47
2022/09/15 02:31:02;;;;;;;9.90;9.50;;;19.50;50.00;;;;;;4994085;28;20626;-46
2022/09/15 02:33:52;;;;;;;9.70;9.20;;;19.50;50.00;;;;;;4994243;28;20448;-47
2022/09/15 02:36:19;;;;;;;10.23;9.83;;;19.50;50.00;;;;;;4994755;28;20531;-46
2022/09/15 02:38:52;;;;;;;10.23;9.87;;;19.60;49.50;;;;;;4994655;28;20409;-46
2022/09/15 02:41:19;;;;;;;9.97;9.57;;;19.50;49.70;;;;;;4994272;28;20420;-47
2022/09/15 02:43:49;;;;;;;10.23;9.73;;;19.50;50.00;;;;;;4994594;28;20431;-46
2022/09/15 02:46:17;;;;;;;10.70;10.30;;;19.50;50.00;;;;;;5011797;28;20515;-45
2022/09/15 02:48:43;;;;;;;10.77;10.23;;;19.40;49.90;;;;;;4994485;28;20932;-41
2022/09/15 02:51:09;;;;;;;10.50;10.20;;;19.40;49.90;;;;;;4993979;28;20499;-43
2022/09/15 02:53:35;;;;;;;10.60;10.10;;;19.40;49.90;;;;;;4994480;28;20231;-42
2022/09/15 02:56:04;;;;;;;10.97;10.27;;;19.40;49.90;;;;;;4994165;28;20442;-41
2022/09/15 02:58:30;;;;;;;11.00;10.47;;;19.40;50.00;;;;;;4994209;28;20411;-42
2022/09/15 03:00:56;;;;;;;10.60;10.10;;;19.40;49.90;;;;;;4993889;28;20792;-43
2022/09/15 03:03:22;;;;;;;10.60;10.20;;;19.30;50.10;;;;;;4993942;28;20177;-43
2022/09/15 03:05:47;;;;;;;10.40;10.00;;;19.30;49.80;;;;;;4995763;28;20427;-42
2022/09/15 03:08:13;;;;;;;11.40;10.90;;;19.30;49.80;;;;;;4998112;28;20234;-49
2022/09/15 03:10:39;;;;;;;11.00;10.50;;;19.30;49.80;;;;;;4997497;28;20209;-50
2022/09/15 03:13:04;;;;;;;10.80;10.40;;;19.20;49.70;;;;;;4997769;28;20169;-47
2022/09/15 03:15:30;;;;;;;10.27;9.83;;;19.30;49.90;;;;;;5015643;28;20180;-49
2022/09/15 03:17:56;;;;;;;11.53;10.73;;;19.30;50.30;;;;;;4997940;28;20205;-50
2022/09/15 03:20:26;;;;;;;10.40;10.10;;;19.30;49.80;;;;;;4997547;28;20184;-47
2022/09/15 03:22:53;;;;;;;10.30;9.93;;;19.20;49.70;;;;;;4997597;28;20173;-50
2022/09/15 03:25:20;;;;;;;10.30;10.00;;;19.20;49.70;;;;;;4997591;28;20471;-48
2022/09/15 03:27:46;;;;;;;10.43;10.13;;;19.20;49.90;;;;;;4997575;28;20499;-43
2022/09/15 03:30:13;;;;;;;10.23;9.73;;;19.20;50.40;;;;;;4997445;28;20563;-46
2022/09/15 03:32:39;;;;;;;11.13;10.43;;;19.30;49.90;;;;;;4997517;28;20212;-43
2022/09/15 03:35:06;;;;;;;10.47;10.00;;;19.30;49.80;;;;;;4997499;28;20809;-43
2022/09/15 03:37:32;;;;;;;10.40;10.00;;;19.30;49.80;;;;;;4997280;28;20400;-44
2022/09/15 03:39:58;;;;;;;10.23;9.93;;;19.30;49.80;;;;;;4997159;28;20470;-41
2022/09/15 03:42:24;;;;;;;10.90;10.20;;;19.30;49.80;;;;;;4997327;28;20822;-46
2022/09/15 03:44:49;;;;;;;11.00;10.70;;;19.30;49.80;;;;;;4997426;28;20177;-43
2022/09/15 03:47:15;;;;;;;10.80;10.40;;;19.30;49.80;;;;;;4997475;28;20181;-51
2022/09/15 03:49:41;;;;;;;10.23;9.93;;;19.20;49.70;;;;;;4997021;28;20173;-51
2022/09/15 03:52:07;;;;;;;9.97;9.57;;;19.20;49.70;;;;;;4996999;28;20456;-47
2022/09/15 03:54:34;;;;;;;10.20;9.90;;;19.20;49.70;;;;;;4997070;28;20665;-49
2022/09/15 03:56:59;;;;;;;11.83;11.33;;;19.20;50.20;;;;;;4997028;28;20635;-49
2022/09/15 03:59:25;;;;;;;10.60;10.27;;;19.10;50.20;;;;;;5014846;28;20404;-48
2022/09/15 04:01:51;;;;;;;10.80;10.40;;;19.10;50.30;;;;;;4996962;28;20177;-51
2022/09/15 04:04:17;;;;;;;10.80;10.40;;;19.10;50.50;;;;;;4997093;28;20185;-51
2022/09/15 04:06:43;;;;;;;11.30;10.73;;;19.10;50.40;;;;;;4997136;28;20272;-52
2022/09/15 04:09:09;;;;;;;10.23;9.73;;;19.10;50.60;;;;;;4996924;28;20416;-48
2022/09/15 04:11:36;;;;;;;10.97;10.53;;;19.10;50.70;;;;;;4996522;28;20456;-51
2022/09/15 04:14:02;;;;;;;11.80;11.10;;;19.00;50.60;;;;;;4996601;28;20444;-51
2022/09/15 04:16:27;;;;;;;11.70;11.10;;;19.00;51.10;;;;;;4996504;28;20522;-46
2022/09/15 04:18:54;;;;;;;10.20;9.90;;;19.00;51.30;;;;;;4996010;28;20192;-50
2022/09/15 04:21:22;;;;;;;10.70;10.27;;;18.90;51.30;;;;;;4996603;28;20188;-48
2022/09/15 04:23:48;;;;;;;10.57;10.27;;;18.90;51.40;;;;;;4996674;28;20424;-48
2022/09/15 04:26:35;;;;;;;10.90;10.60;;;19.00;51.20;;;;;;4996628;28;20436;-49
2022/09/15 04:29:03;;;;;;;10.63;10.20;;;18.90;51.30;;;;;;4996397;28;20181;-48
2022/09/15 04:31:29;;;;;;;10.43;10.03;;;19.00;52.00;;;;;;4996137;28;20464;-46
2022/09/15 04:33:55;;;;;;;10.57;10.17;;;18.90;52.00;;;;;;4996597;28;20427;-49
2022/09/15 04:36:23;;;;;;;10.77;10.27;;;18.90;52.50;;;;;;4996151;28;20637;-45
2022/09/15 04:38:49;;;;;;;9.87;9.57;;;18.90;52.60;;;;;;4996452;28;20785;-42
2022/09/15 04:41:15;;;;;;;10.63;10.33;;;18.90;52.00;;;;;;4996202;28;20455;-43
2022/09/15 04:43:42;;;;;;;10.67;10.27;;;19.00;51.90;;;;;;4996412;28;20860;-42
2022/09/15 04:46:09;;;;;;;11.03;10.63;;;18.90;51.60;;;;;;4995958;28;20431;-44
2022/09/15 04:48:36;;;;;;;10.00;9.60;;;18.90;51.90;;;;;;4995673;28;20471;-47
2022/09/15 04:51:09;;;;;;;10.93;10.30;;;18.80;52.00;;;;;;4995713;28;20982;-43
2022/09/15 04:53:36;;;;;;;10.70;10.30;;;18.80;51.80;;;;;;4995921;28;20507;-44
2022/09/15 04:56:14;;;;;;;9.90;9.60;;;18.80;51.80;;;;;;4996027;28;20852;-41
2022/09/15 04:58:43;;;;;;;11.53;10.87;;;18.80;51.50;;;;;;4995735;28;20786;-42
2022/09/15 05:01:12;;;;;;;10.60;10.20;;;18.80;51.40;;;;;;4995835;28;20988;-45
2022/09/15 05:03:38;;;;;;;11.23;10.80;;;18.80;51.70;;;;;;4995885;28;20419;-42
2022/09/15 05:06:10;;;;;;;11.57;10.80;;;18.90;51.40;;;;;;5013240;28;20424;-42
2022/09/15 05:08:36;;;;;;;11.83;11.00;;;18.90;51.10;;;;;;4995920;28;20435;-42
2022/09/15 05:11:04;;;;;;;11.17;10.77;;;19.00;51.00;;;;;;4995309;28;20818;-43
2022/09/15 05:13:30;;;;;;;11.10;10.70;;;19.00;50.50;;;;;;4995793;28;20783;-41
2022/09/15 05:16:01;;;;;;;11.40;11.00;;;19.00;49.80;;;;;;4995774;28;20412;-42
2022/09/15 05:18:27;;;;;;;11.40;10.80;;;19.00;50.70;;;;;;5013283;28;20252;-47
2022/09/15 05:20:57;;;;;;;12.03;11.20;;;19.00;50.80;;;;;;4995501;28;20506;-43
2022/09/15 05:23:23;;;;;;;10.30;10.00;;;19.00;52.00;;;;;;4995575;28;20184;-45
2022/09/15 05:26:00;;;;;;;10.90;10.60;;;19.00;51.90;;;;;;4995517;28;20448;-46
2022/09/15 05:28:26;;;;;;;11.30;10.70;;;19.00;52.00;;;;;;4995508;28;20548;-46
2022/09/15 05:30:53;;;;;;;10.60;10.30;;;19.00;51.80;;;;;;4995166;28;20464;-44
2022/09/15 05:33:19;;;;;;;10.73;10.33;;;19.00;51.80;;;;;;4995329;28;20954;-43
2022/09/15 05:35:57;;;;;;;10.50;10.20;;;19.00;51.70;;;;;;4994949;28;20404;-44
2022/09/15 05:38:24;;;;;;;11.63;11.23;;;19.00;51.90;;;;;;5012961;28;20555;-42
2022/09/15 05:40:50;;;;;;;10.70;10.40;;;19.00;52.20;;;;;;4995070;28;20412;-44
2022/09/15 05:43:17;;;;;;;10.67;10.20;;;19.00;52.30;;;;;;4995184;28;20420;-45
2022/09/15 05:45:43;;;;;;;11.17;10.57;;;18.90;51.10;;;;;;5012614;28;20409;-50
2022/09/15 05:48:10;;;;;;;10.93;10.00;;;18.90;51.00;;;;;;4994980;28;20416;-51
2022/09/15 05:50:37;;;;;;;10.40;10.10;;;19.00;51.60;;;;;;4994834;28;20990;-41
2022/09/15 05:53:03;;;;;;;10.70;10.40;;;18.90;50.90;;;;;;4994977;28;20412;-44
2022/09/15 05:55:29;;;;;;;9.80;9.50;;;18.90;51.30;;;;;;4995046;28;20503;-42
2022/09/15 05:57:55;;;;;;;10.13;9.80;;;18.80;51.50;;;;;;4995128;28;20412;-41
2022/09/15 06:00:21;;;;;;;10.80;10.50;;;18.90;51.30;;;;;;4994750;28;20474;-41
2022/09/15 06:02:46;;;;;;;10.63;10.30;;;18.90;50.40;;;;;;4994499;28;20582;-47
2022/09/15 06:05:12;;;;;;;10.63;10.03;;;18.90;50.50;;;;;;4994537;28;20229;-49
2022/09/15 06:07:38;;;;;;;10.73;10.43;;;18.90;50.50;;;;;;4994548;28;20177;-47
2022/09/15 06:10:04;;;;;;;10.70;10.30;;;18.90;50.70;;;;;;4994172;28;20184;-47
2022/09/15 06:12:29;;;;;;;11.00;10.30;;;19.00;50.00;;;;;;5011949;28;20212;-47
2022/09/15 06:14:55;;;;;;;10.50;10.20;;;19.00;49.50;;;;;;4994595;28;20459;-47
2022/09/15 06:17:22;;;;;;;11.40;11.00;;;19.00;50.30;;;;;;4994377;28;20173;-48
2022/09/15 06:19:47;;;;;;;10.60;10.20;;;18.90;49.60;;;;;;4994700;28;20204;-49
2022/09/15 06:22:13;;;;;;;10.70;10.40;;;19.00;49.70;;;;;;5011733;28;20419;-50
2022/09/15 06:24:39;;;;;;;11.37;11.00;;;19.00;49.50;;;;;;4994298;28;20543;-48
2022/09/15 06:27:05;;;;;;;10.60;10.10;;;19.10;50.30;;;;;;4978156;28;20177;-48
2022/09/15 06:29:31;;;;;;;10.50;10.10;;;19.00;50.80;;;;;;4994476;28;20259;-50
2022/09/15 06:32:01;;;;;;;10.23;9.93;;;19.00;50.70;;;;;;4994124;28;20271;-49
2022/09/15 06:34:28;;;;;;;10.40;10.10;;;19.00;51.10;;;;;;4994385;28;20412;-42
2022/09/15 06:36:54;;;;;;;10.97;10.47;;;19.00;52.40;;;;;;4994477;28;20768;-45
2022/09/15 06:39:19;;;;;;;10.30;9.90;;;19.00;51.90;;;;;;4994549;28;20491;-45
2022/09/15 06:41:45;;;;;;;9.90;9.50;;;18.90;53.60;;;;;;5015281;28;20770;-43
2022/09/15 06:44:11;;;;;;;9.23;8.83;;;18.90;53.70;;;;;;4998677;28;20184;-42
2022/09/15 06:46:37;;;;;;;9.50;9.10;;;18.90;55.30;;;;;;4998572;28;20189;-43
2022/09/15 06:49:03;;;;;;;9.00;8.50;;;18.80;56.00;;;;;;4998418;28;20177;-43
2022/09/15 06:51:34;;;;;;;9.00;8.50;;;18.90;56.30;;;;;;4998237;28;20461;-44
2022/09/15 06:54:00;;;;;;;9.03;8.73;;;19.00;57.20;;;;;;4998345;28;20184;-51
2022/09/15 06:56:26;;;;;;;9.13;8.83;;;19.00;57.50;;;;;;4998541;28;20444;-51
2022/09/15 06:58:53;;;;;;;9.70;9.30;;;19.10;57.30;;;;;;4998274;28;20427;-42
2022/09/15 07:01:30;;;;;;;9.80;9.20;;;19.00;56.50;;;;;;4998092;28;20416;-46
2022/09/15 07:03:58;;;;;;;10.83;10.33;;;19.10;58.00;;;;;;4998127;28;20942;-42
2022/09/15 07:06:26;;;;;;;9.50;9.20;;;19.00;59.10;;;;;;4998152;28;20908;-46
2022/09/15 07:08:52;;;;;;;9.20;8.80;;;18.90;58.20;;;;;;4998083;28;20432;-44
2022/09/15 07:11:19;;;;;;;9.43;9.03;;;19.00;59.40;;;;;;4997870;28;20460;-42
2022/09/15 07:13:47;;;;;;;8.97;8.67;;;19.00;59.20;;;;;;4998162;28;20412;-44
2022/09/15 07:16:12;;;;;;;13.33;9.13;;;19.00;59.30;;;;;;4997903;28;20815;-42
2022/09/15 07:18:38;;;;;;;9.00;8.60;;;19.00;59.30;;;;;;4998017;28;20407;-42
2022/09/15 07:21:11;;;;;;;9.40;9.10;;;18.90;59.20;;;;;;4997724;28;20665;-43
2022/09/15 07:23:36;;;;;;;9.00;8.70;;;18.90;59.70;;;;;;4998046;28;20495;-43
2022/09/15 07:26:14;;;;;;;9.13;8.83;;;19.00;60.00;;;;;;4997713;28;20526;-48
2022/09/15 07:28:41;;;;;;;10.00;9.70;;;18.90;59.20;;;;;;4997835;28;20188;-45
2022/09/15 07:31:09;;;;;;;9.33;8.93;;;18.80;59.20;;;;;;4997524;28;20495;-46
2022/09/15 07:33:35;;;;;;;9.00;8.50;;;18.80;61.50;;;;;;4997702;28;20506;-45
2022/09/15 07:36:03;;;;;;;8.80;8.40;;;18.90;61.90;;;;;;4997532;28;20928;-44
2022/09/15 07:38:28;;;;;;;8.57;8.27;;;18.90;59.50;;;;;;4997574;28;20404;-47
2022/09/15 07:41:00;;;;;;;8.70;8.40;;;18.80;59.20;;;;;;4997306;28;20473;-42
2022/09/15 07:43:26;;;;;;;8.60;8.20;;;18.70;60.50;;;;;;4997530;28;20213;-44
2022/09/15 07:45:59;;;;;;;8.93;8.50;;;18.70;61.20;;;;;;4997458;28;20440;-44
2022/09/15 07:48:24;;;;;;;7.73;7.53;;;18.80;61.60;;;;;;4997646;28;20188;-44
2022/09/15 07:50:50;;;;;;;7.83;7.63;;;18.70;61.20;;;;;;4997160;28;20967;-50
2022/09/15 07:53:16;;;;;;;8.40;8.00;;;18.70;61.10;;;;;;4996190;28;20673;-44
2022/09/15 07:59:04;;;;;;;7.60;7.30;;;18.60;62.50;;;;;;5014810;28;20487;-47
2022/09/15 08:01:29;;;;;;;6.40;6.10;;;18.60;62.60;;;;;;4997002;28;20884;-41
2022/09/15 08:03:56;;;;;;;7.13;6.73;;;18.50;63.00;;;;;;4997140;28;20182;-45
2022/09/15 08:06:24;;;;;;;7.23;6.93;;;18.50;63.30;;;;;;4997218;28;20715;-43
2022/09/15 08:08:50;;;;;;;7.40;7.17;;;18.50;64.30;;;;;;4996889;28;20412;-44
2022/09/15 08:11:17;;;;;;;8.37;7.87;;;18.40;64.80;;;;;;4996698;28;20467;-47
2022/09/15 08:13:43;;;;;;;6.40;6.20;;;18.50;66.10;;;;;;4997001;28;20416;-44
2022/09/15 08:16:14;;;;;;;6.70;6.43;;;18.50;65.70;;;;;;4996829;28;20503;-48
2022/09/15 08:18:42;;;;;;;6.20;6.00;;;18.50;65.40;;;;;;4996888;28;20404;-47
2022/09/15 08:21:10;;;;;;;6.40;6.10;;;18.50;65.10;;;;;;4996513;28;20420;-53
2022/09/15 08:23:37;;;;;;;7.00;6.40;;;18.40;65.60;;;;;;4996709;28;20451;-50
2022/09/15 08:26:06;;;;;;;6.90;6.50;;;18.40;66.20;;;;;;4996370;28;20459;-49
2022/09/15 08:28:31;;;;;;;5.90;5.60;;;18.50;66.90;;;;;;4996767;28;20404;-51
2022/09/15 08:31:02;;;;;;;6.70;6.30;;;18.50;67.20;;;;;;4996239;28;20827;-52
2022/09/15 08:33:28;;;;;;;6.13;5.73;;;18.50;66.30;;;;;;4996556;28;20176;-52
2022/09/15 08:35:58;;;;;;;5.70;5.50;;;18.50;66.50;;;;;;4996548;28;20420;-49
2022/09/15 08:38:24;;;;;;;5.80;5.60;;;18.60;66.50;;;;;;4996562;28;20176;-48
2022/09/15 08:41:03;;;;;;;5.53;5.33;;;18.50;65.00;;;;;;4996265;28;20416;-49
2022/09/15 08:43:38;;;;;;;6.70;6.40;;;18.60;66.20;;;;;;4996396;28;20728;-49
2022/09/15 08:46:09;;;;;;;7.13;6.73;;;18.60;64.80;;;;;;4996298;28;20522;-48
2022/09/15 08:48:47;;;;;;;6.20;6.00;;;18.60;64.70;;;;;;4996278;28;20978;-48
2022/09/15 08:51:22;;;;;;;6.00;5.80;;;18.60;64.10;;;;;;4995793;28;20467;-47
2022/09/15 08:53:54;;;;;;;5.97;5.67;;;18.70;64.10;;;;;;4995954;28;20424;-51
2022/09/15 08:56:21;;;;;;;7.27;6.97;;;18.80;64.60;;;;;;4996169;28;20408;-51
2022/09/15 08:58:47;;;;;;;6.80;6.30;;;18.80;63.20;;;;;;4995784;28;20473;-50
2022/09/15 09:01:24;;;;;;;6.63;6.43;;;18.90;63.20;;;;;;4995591;28;21003;-51
2022/09/15 09:04:09;;;;;;;6.73;6.53;;;18.90;63.60;;;;;;4995487;28;20503;-49
2022/09/15 09:06:37;;;;;;;7.33;7.03;;;18.90;62.60;;;;;;4995877;28;20458;-51
2022/09/15 09:09:24;;;;;;;6.83;6.53;;;19.00;62.40;;;;;;4996015;28;20564;-52
2022/09/15 09:12:19;;;;;;;6.37;6.17;;;19.00;62.10;;;;;;4995572;28;20460;-48
2022/09/15 09:14:47;;;;;;;6.90;6.60;;;19.00;62.40;;;;;;4995655;28;20423;-47
2022/09/15 09:17:35;;;;;;;7.27;7.03;;;19.00;62.10;;;;;;4995568;28;20417;-50
2022/09/15 09:20:39;;;;;;;6.40;6.10;;;19.10;62.50;;;;;;4995220;28;20976;-53
2022/09/15 09:23:12;;;;;;;7.23;6.93;;;19.10;62.00;;;;;;4988499;28;20944;-49
2022/09/15 09:25:40;;;;;;;6.83;6.57;;;19.10;61.80;;;;;;4995481;28;20432;-50
2022/09/15 09:28:27;;;;;;;7.23;6.97;;;19.20;62.20;;;;;;4995505;28;20458;-47
2022/09/15 09:30:56;;;;;;;7.17;6.97;;;19.20;60.00;;;;;;4995210;28;20454;-47
2022/09/15 09:33:51;;;;;;;6.50;6.20;;;19.10;59.80;;;;;;4995152;28;20411;-47
2022/09/15 09:36:18;;;;;;;7.03;6.83;;;19.20;61.10;;;;;;4960347;28;20826;-47
2022/09/15 09:38:45;;;;;;;7.10;6.80;;;19.30;58.20;;;;;;4995438;28;20420;-49
2022/09/15 09:41:27;;;;;;;8.03;7.53;;;19.30;57.00;;;;;;4994857;28;20519;-51
2022/09/15 09:43:54;;;;;;;8.27;7.97;;;19.30;55.50;;;;;;4995365;28;20812;-48
2022/09/15 09:46:20;;;;;;;7.33;7.13;;;19.20;55.10;;;;;;4994979;28;20481;-51
2022/09/15 09:48:53;;;;;;;7.60;7.30;;;19.20;55.20;;;;;;4995238;28;21010;-52
2022/09/15 09:51:32;;;;;;;7.00;6.80;;;19.20;55.40;;;;;;4994797;28;20975;-51
2022/09/15 09:54:15;;;;;;;7.57;7.17;;;19.10;55.40;;;;;;4995451;28;20431;-51
2022/09/15 09:56:42;;;;;;;7.40;7.20;;;19.10;55.40;;;;;;4994980;28;20424;-51
2022/09/15 09:59:47;;;;;;;6.70;6.50;;;19.00;55.50;;;;;;4994979;28;20432;-48
2022/09/15 10:02:14;;;;;;;7.20;7.00;;;19.00;55.80;;;;;;4954576;28;20538;-47
2022/09/15 10:05:10;;;;;;;6.40;6.20;;;18.90;56.00;;;;;;4991412;28;20416;-43
2022/09/15 10:07:42;;;;;;;6.57;6.27;;;18.70;58.20;;;;;;4994791;28;20504;-44
2022/09/15 10:10:24;;;;;;;7.10;6.80;;;18.70;58.30;;;;;;4994505;28;20813;-45
2022/09/15 10:12:55;;;;;;;6.60;6.30;;;18.70;58.40;;;;;;4994760;28;20942;-49
2022/09/15 10:15:26;;;;;;;6.97;6.50;;;18.70;58.90;;;;;;4994105;28;20702;-42
2022/09/15 10:17:54;;;;;;;7.03;6.80;;;18.70;58.20;;;;;;4994569;28;20785;-45
2022/09/15 10:20:34;;;;;;;7.50;7.30;;;18.70;57.20;;;;;;4994473;28;20512;-45
2022/09/15 10:23:23;;;;;;;7.10;6.90;;;18.60;56.60;;;;;;4994658;28;20428;-43
2022/09/15 10:25:51;;;;;;;7.10;6.90;;;18.50;56.90;;;;;;4994438;28;20448;-42
2022/09/15 10:28:20;;;;;;;7.10;6.90;;;18.60;57.00;;;;;;4994421;28;20785;-47
2022/09/15 10:31:09;;;;;;;6.90;6.70;;;18.50;57.20;;;;;;4994324;28;20529;-43
2022/09/15 10:33:41;;;;;;;7.40;7.20;;;18.50;56.70;;;;;;4994480;28;20416;-45
2022/09/15 10:36:14;;;;;;;7.40;7.20;;;18.50;56.80;;;;;;4994333;28;20795;-44
2022/09/15 10:38:45;;;;;;;6.87;6.63;;;18.50;56.70;;;;;;4994548;28;20429;-43
2022/09/15 10:41:31;;;;;;;7.07;6.77;;;18.50;55.80;;;;;;4994271;28;20420;-43
2022/09/15 10:44:00;;;;;;;7.40;7.20;;;18.50;55.70;;;;;;4994231;28;20479;-43
2022/09/15 10:46:45;;;;;;;7.60;7.40;;;18.40;56.00;;;;;;4994445;28;20512;-43
2022/09/15 10:49:32;;;;;;;8.57;8.27;;;18.40;54.90;;;;;;4993989;28;20420;-48
2022/09/15 10:52:25;;;;;;;8.87;8.57;;;18.30;55.10;;;;;;4993942;28;20490;-50
2022/09/15 10:55:15;;;;;;;8.23;7.83;;;18.20;54.80;;;;;;4994421;28;20416;-48
2022/09/15 10:57:59;;;;;;;9.20;8.80;;;18.10;54.10;;;;;;4994290;28;20462;-48
2022/09/15 11:00:58;;;;;;;9.77;9.37;;;18.00;53.70;;;;;;4994235;28;20473;-47
2022/09/15 11:03:32;;;;;;;10.43;10.03;;;18.00;52.90;;;;;;4959329;28;20810;-47
2022/09/15 11:05:58;;;;;;;9.90;9.60;;;18.00;51.40;;;;;;4994281;28;20647;-46
2022/09/15 11:08:32;;;;;;;9.90;9.30;;;17.90;52.20;;;;;;4994370;28;20423;-51
2022/09/15 11:11:28;;;;;;;9.80;9.40;;;17.90;50.80;;;;;;4994052;28;20455;-47
2022/09/15 11:14:31;;;;;;;10.07;9.77;;;17.70;51.20;;;;;;4994230;28;20416;-50
2022/09/15 11:17:22;;;;;;;10.70;10.40;;;17.60;51.20;;;;;;4994153;28;20442;-41
2022/09/15 11:20:12;;;;;;;11.10;10.70;;;17.50;51.20;;;;;;4994049;28;20459;-46
2022/09/15 11:22:44;;;;;;;12.10;11.60;;;17.50;51.60;;;;;;4994136;28;20560;-47
2022/09/15 11:25:18;;;;;;;10.63;10.10;;;17.50;51.30;;;;;;4994022;28;20870;-48
2022/09/15 11:27:46;;;;;;;10.60;10.20;;;17.50;50.90;;;;;;4996997;28;20464;-45
2022/09/15 11:30:15;;;;;;;10.93;10.33;;;17.40;51.00;;;;;;4997438;28;20421;-44
2022/09/15 11:32:50;;;;;;;10.03;9.73;;;17.30;51.30;;;;;;4997600;28;20424;-48
2022/09/15 11:35:40;;;;;;;10.70;10.20;;;17.30;51.40;;;;;;4997405;28;20430;-47
2022/09/15 11:38:25;;;;;;;11.80;11.10;;;17.30;50.70;;;;;;4997431;28;20472;-47
2022/09/15 11:41:10;;;;;;;11.40;11.00;;;17.30;50.50;;;;;;4997327;28;20847;-44
2022/09/15 11:43:49;;;;;;;11.17;10.67;;;17.20;49.90;;;;;;4997127;28;20424;-49
2022/09/15 11:46:22;;;;;;;11.57;10.97;;;17.20;51.60;;;;;;4997420;28;20412;-44
2022/09/15 11:49:05;;;;;;;11.10;10.60;;;17.20;51.90;;;;;;4997665;28;20470;-49
2022/09/15 11:51:40;;;;;;;12.50;11.90;;;17.30;51.00;;;;;;4997187;28;20471;-52
2022/09/15 11:54:33;;;;;;;11.40;10.77;;;17.30;51.10;;;;;;5014893;28;20407;-49
2022/09/15 11:56:59;;;;;;;12.13;11.60;;;17.30;50.70;;;;;;4997221;28;20421;-51
2022/09/15 11:59:39;;;;;;;11.70;11.10;;;17.30;50.80;;;;;;4997219;28;20757;-49
2022/09/15 12:02:27;;;;;;;11.60;11.07;;;17.30;50.40;;;;;;4996674;28;20519;-51
2022/09/15 12:05:30;;;;;;;11.80;11.30;;;17.30;49.90;;;;;;4997170;28;20431;-51
2022/09/15 12:08:14;;;;;;;12.83;12.23;;;17.40;50.10;;;;;;4997028;28;20459;-51
2022/09/15 12:10:44;;;;;;;11.13;10.73;;;17.30;48.00;;;;;;4996701;28;20539;-50
2022/09/15 12:13:17;;;;;;;12.37;11.77;;;17.30;48.40;;;;;;4996780;28;20412;-48
2022/09/15 12:15:44;;;;;;;11.67;11.07;;;17.20;48.70;;;;;;4997084;28;20452;-48
2022/09/15 12:18:33;;;;;;;11.50;10.90;;;17.20;48.00;;;;;;4996533;28;20455;-51
2022/09/15 12:21:22;;;;;;;11.43;10.93;;;17.10;49.00;;;;;;4996720;28;20427;-51
2022/09/15 12:24:13;;;;;;;12.80;12.20;;;17.10;49.50;;;;;;4996304;28;20424;-42
2022/09/15 12:26:42;;;;;;;11.67;11.10;;;17.20;50.50;;;;;;4996635;28;20498;-46
2022/09/15 12:29:26;;;;;;;12.60;12.10;;;17.30;50.50;;;;;;4996316;28;20466;-41
2022/09/15 12:32:10;;;;;;;10.80;10.30;;;17.30;50.50;;;;;;4996347;28;20468;-44
2022/09/15 12:34:37;;;;;;;11.97;11.20;;;17.40;51.40;;;;;;4996671;28;20525;-46
2022/09/15 12:37:17;;;;;;;11.70;11.30;;;17.40;50.70;;;;;;4996382;28;20496;-42
2022/09/15 12:39:44;;;;;;;11.50;11.00;;;17.50;50.40;;;;;;5013150;28;20405;-49
2022/09/15 12:42:13;;;;;;;11.57;11.07;;;17.50;52.20;;;;;;4996168;28;20452;-47
2022/09/15 12:45:19;;;;;;;11.63;11.17;;;17.60;50.80;;;;;;4996378;28;20455;-47
2022/09/15 12:47:53;;;;;;;11.63;11.13;;;17.60;51.60;;;;;;4988034;28;20416;-48
2022/09/15 12:50:21;;;;;;;12.27;11.67;;;17.60;51.80;;;;;;4996111;28;20503;-46
2022/09/15 12:52:55;;;;;;;12.37;11.87;;;17.60;50.20;;;;;;5013823;28;20416;-51
2022/09/15 12:55:26;;;;;;;12.03;11.43;;;17.60;49.50;;;;;;4995963;28;20425;-47
2022/09/15 12:58:08;;;;;;;11.97;11.57;;;17.70;49.00;;;;;;4996286;28;20420;-51
2022/09/15 13:00:44;;;;;;;11.80;11.33;;;17.70;49.70;;;;;;4995853;28;20435;-50
2022/09/15 13:03:28;;;;;;;12.80;12.30;;;17.70;48.40;;;;;;4995722;28;20432;-50
2022/09/15 13:06:09;;;;;;;12.43;11.83;;;17.80;47.10;;;;;;4995707;28;20474;-50